Time;durP1;ratioP1;P1;durP2;ratioP2;P2;SDS_P1;SDS_P2;PMS_P1;PMS_P2;Temp;Humidity;BMP_temperature;BMP_pressure;BME280_temperature;BME280_humidity;BME280_pressure;Samples;Min_cycle;Max_cycle;Signal;HPM_P1;HPM_P2
2021/07/15 00:00:05;;;;;;;1999.90;999.90;;;;;;;16.76;46.71;100626.91;4828617;29;98523;-70
2021/07/15 00:02:33;;;;;;;1999.90;999.90;;;;;;;16.67;46.90;100623.38;4829034;29;98924;-70
2021/07/15 00:05:07;;;;;;;1999.90;999.90;;;;;;;16.63;46.81;100622.50;4829077;29;96818;-70
2021/07/15 00:07:34;;;;;;;1999.90;999.90;;;;;;;16.65;47.16;100628.75;4830531;29;97438;-70
2021/07/15 00:10:07;;;;;;;1999.90;999.90;;;;;;;16.67;47.08;100629.63;4829636;29;98797;-70
2021/07/15 00:12:35;;;;;;;1999.90;999.90;;;;;;;16.69;47.30;100627.81;4828629;29;99057;-71
2021/07/15 00:15:06;;;;;;;1999.90;999.90;;;;;;;16.71;47.05;100619.78;4829099;29;97482;-70
2021/07/15 00:17:34;;;;;;;1999.90;999.90;;;;;;;16.73;47.04;100634.09;4859439;28;98774;-70
2021/07/15 00:20:02;;;;;;;1999.90;999.90;;;;;;;16.73;46.85;100634.09;4859649;28;98552;-70
2021/07/15 00:22:30;;;;;;;1999.90;999.90;;;;;;;16.73;47.05;100636.78;4828836;29;97697;-70
2021/07/15 00:24:59;;;;;;;1999.90;999.90;;;;;;;16.74;46.88;100635.91;4828927;29;98225;-70
2021/07/15 00:27:28;;;;;;;1999.90;999.90;;;;;;;16.73;46.97;100642.16;4830606;29;97129;-71
2021/07/15 00:29:56;;;;;;;1999.90;999.90;;;;;;;16.73;46.72;100643.06;4830805;29;98446;-70
2021/07/15 00:32:24;;;;;;;1999.90;999.90;;;;;;;16.70;46.81;100640.41;4829333;29;97255;-70
2021/07/15 00:34:55;;;;;;;1999.90;999.90;;;;;;;16.69;46.63;100649.31;4827648;29;99128;-71
2021/07/15 00:37:23;;;;;;;1999.90;999.90;;;;;;;16.63;46.78;100646.69;4824447;29;97649;-70
2021/07/15 00:39:50;;;;;;;1999.90;999.90;;;;;;;16.63;46.60;100656.53;4855496;28;99627;-69
2021/07/15 00:42:18;;;;;;;1999.90;999.90;;;;;;;16.61;46.60;100647.59;4829042;29;98442;-70
2021/07/15 00:44:47;;;;;;;1999.90;999.90;;;;;;;16.61;46.94;100651.19;4825309;29;97239;-71
2021/07/15 00:47:15;;;;;;;1999.90;999.90;;;;;;;16.60;46.62;100661.91;4828630;29;96925;-71
2021/07/15 00:49:43;;;;;;;1999.90;999.90;;;;;;;16.58;46.78;100666.44;4829291;29;97775;-70
2021/07/15 00:52:12;;;;;;;1999.90;999.90;;;;;;;16.60;46.79;100662.81;4829388;29;97964;-70
2021/07/15 00:54:41;;;;;;;1999.90;999.90;;;;;;;16.57;46.55;100648.50;4856095;28;97717;-70
2021/07/15 00:57:09;;;;;;;1999.90;999.90;;;;;;;16.58;46.82;100658.38;4830381;29;96915;-70
2021/07/15 00:59:37;;;;;;;1999.90;999.90;;;;;;;16.58;47.07;100659.22;4827756;29;97707;-70
2021/07/15 01:02:06;;;;;;;1999.90;999.90;;;;;;;16.58;46.74;100669.13;4828356;29;98718;-70
2021/07/15 01:04:35;;;;;;;1999.90;999.90;;;;;;;16.56;46.97;100665.53;4827983;29;97937;-70
2021/07/15 01:07:02;;;;;;;1999.90;999.90;;;;;;;16.54;46.96;100670.91;4842687;29;98000;-70
2021/07/15 01:09:31;;;;;;;1999.90;999.90;;;;;;;16.53;47.05;100669.13;4828769;29;97668;-70
2021/07/15 01:12:13;;;;;;;1999.90;999.90;;;;;;;16.51;47.12;100673.59;4829970;29;97938;-70
2021/07/15 01:14:47;;;;;;;1999.90;999.90;;;;;;;16.51;46.95;100676.28;4827124;29;98140;-70
2021/07/15 01:17:20;;;;;;;1999.90;999.90;;;;;;;16.50;47.05;100682.59;4827870;29;97508;-70
2021/07/15 01:20:44;;;;;;;1999.90;999.90;;;;;;;16.50;47.13;100690.63;4827859;29;97790;-70
2021/07/15 01:23:28;;;;;;;1999.90;999.90;;;;;;;16.48;47.40;100691.53;4827946;29;97918;-71
2021/07/15 01:26:21;;;;;;;1999.90;999.90;;;;;;;16.46;47.29;100698.69;4855352;28;97172;-71
2021/07/15 01:29:25;;;;;;;1999.90;999.90;;;;;;;16.42;47.22;100699.59;4827541;29;97767;-71
2021/07/15 01:31:56;;;;;;;1999.90;999.90;;;;;;;16.39;47.35;100697.84;4832611;29;98197;-71
2021/07/15 01:34:26;;;;;;;1999.90;999.90;;;;;;;16.38;47.39;100705.91;4830754;29;97897;-70
2021/07/15 01:36:55;;;;;;;1999.90;999.90;;;;;;;16.37;47.47;100699.63;4846634;29;97679;-70
2021/07/15 01:39:26;;;;;;;1999.90;999.90;;;;;;;16.36;47.57;100708.56;4831488;29;97498;-71
2021/07/15 01:41:56;;;;;;;1999.90;999.90;;;;;;;16.37;47.44;100709.47;4831214;29;100381;-71
2021/07/15 01:44:26;;;;;;;1999.90;999.90;;;;;;;16.37;47.67;100709.47;4831532;29;97259;-70
2021/07/15 01:46:56;;;;;;;1999.90;999.90;;;;;;;16.37;47.76;100717.53;4832322;29;97363;-70
2021/07/15 01:49:24;;;;;;;1999.90;999.90;;;;;;;16.37;47.96;100717.53;4831688;29;96944;-71
2021/07/15 01:51:54;;;;;;;1999.90;999.90;;;;;;;16.36;47.78;100715.78;4832031;29;97707;-70
2021/07/15 01:54:23;;;;;;;1999.90;999.90;;;;;;;16.36;48.17;100711.25;4812776;29;98464;-70
2021/07/15 01:56:51;;;;;;;1999.90;999.90;;;;;;;16.38;47.91;100719.34;4832943;29;96984;-70
2021/07/15 01:59:23;;;;;;;1999.90;999.90;;;;;;;16.37;48.08;100709.47;4846293;29;97020;-70
2021/07/15 02:01:52;;;;;;;1999.90;999.90;;;;;;;16.37;48.17;100712.16;4827161;29;98281;-71
2021/07/15 02:04:25;;;;;;;1999.90;999.90;;;;;;;16.35;48.47;100709.50;4843328;29;100384;-70
2021/07/15 02:06:54;;;;;;;1999.90;999.90;;;;;;;16.36;48.55;100699.66;4831483;29;97630;-70
2021/07/15 02:09:23;;;;;;;1999.90;999.90;;;;;;;16.37;48.93;100693.38;4832346;29;96998;-70
2021/07/15 02:11:52;;;;;;;1999.90;999.90;;;;;;;16.36;48.54;100696.97;4831428;29;98368;-70
2021/07/15 02:14:22;;;;;;;1999.90;999.90;;;;;;;16.37;49.02;100696.06;4860839;28;97403;-70
2021/07/15 02:16:52;;;;;;;1999.90;999.90;;;;;;;16.36;48.69;100696.97;4830827;29;96899;-70
2021/07/15 02:19:23;;;;;;;1999.90;999.90;;;;;;;16.37;48.52;100688.00;4828817;29;97278;-71
2021/07/15 02:21:52;;;;;;;1999.90;999.90;;;;;;;16.36;48.44;100686.22;4830567;29;97411;-70
2021/07/15 02:24:23;;;;;;;1999.90;999.90;;;;;;;16.35;48.38;100679.06;4830083;29;100562;-70
2021/07/15 02:26:52;;;;;;;1999.90;999.90;;;;;;;16.37;48.37;100679.94;4832513;29;97289;-70
2021/07/15 02:29:20;;;;;;;1999.90;999.90;;;;;;;16.35;48.45;100673.69;4831319;29;97599;-71
2021/07/15 02:31:52;;;;;;;1999.90;999.90;;;;;;;16.36;48.48;100670.13;4832219;29;96848;-71
2021/07/15 02:34:24;;;;;;;1999.90;999.90;;;;;;;16.37;48.13;100670.09;4829608;29;100390;-71
2021/07/15 02:36:53;;;;;;;1999.90;999.90;;;;;;;16.36;48.10;100667.44;4844274;29;97561;-70
2021/07/15 02:39:20;;;;;;;1999.90;999.90;;;;;;;16.36;48.41;100667.44;4826384;29;98011;-70
2021/07/15 02:41:48;;;;;;;1999.90;999.90;;;;;;;16.35;48.60;100681.72;4810915;29;98454;-71
2021/07/15 02:44:17;;;;;;;1999.90;999.90;;;;;;;16.33;48.87;100678.16;4860685;28;100530;-70
2021/07/15 02:46:45;;;;;;;1999.90;999.90;;;;;;;16.31;49.00;100683.53;4829477;29;97279;-70
2021/07/15 02:49:13;;;;;;;1999.90;999.90;;;;;;;16.31;48.87;100691.59;4832160;29;97146;-69
2021/07/15 02:51:42;;;;;;;1999.90;999.90;;;;;;;16.30;49.36;100680.88;4831664;29;97090;-70
2021/07/15 02:54:10;;;;;;;1999.90;999.90;;;;;;;16.27;49.23;100679.06;4829533;29;99296;-71
2021/07/15 02:56:41;;;;;;;1999.90;999.90;;;;;;;16.27;49.22;100688.94;4830013;29;97555;-70
2021/07/15 02:59:14;;;;;;;1999.90;999.90;;;;;;;16.26;49.47;100704.16;4860698;28;97625;-70
2021/07/15 03:01:48;;;;;;;1999.90;999.90;;;;;;;16.25;48.96;100702.34;4831060;29;97689;-70
2021/07/15 03:04:24;;;;;;;1999.90;999.90;;;;;;;16.24;48.58;100703.25;4830425;29;97872;-69
2021/07/15 03:06:55;;;;;;;1999.90;999.90;;;;;;;16.23;48.65;100698.81;4859538;28;97566;-71
2021/07/15 03:09:25;;;;;;;1999.90;999.90;;;;;;;16.32;48.66;100708.63;4829388;29;97164;-70
2021/07/15 03:11:59;;;;;;;1999.90;999.90;;;;;;;16.30;48.70;100702.34;4860522;28;98429;-70
2021/07/15 03:14:30;;;;;;;1999.90;999.90;;;;;;;16.26;48.93;100708.63;4828892;29;97392;-70
2021/07/15 03:16:59;;;;;;;1999.90;999.90;;;;;;;16.25;48.46;100709.53;4860076;28;96824;-70
2021/07/15 03:19:30;;;;;;;1999.90;999.90;;;;;;;16.23;48.58;100708.66;4830416;29;98199;-70
2021/07/15 03:22:02;;;;;;;1999.90;999.90;;;;;;;16.20;48.70;100703.25;4859881;28;98990;-70
2021/07/15 03:24:31;;;;;;;1999.90;999.90;;;;;;;16.17;48.45;100697.91;4831104;29;97872;-70
2021/07/15 03:27:03;;;;;;;1999.90;999.90;;;;;;;16.13;48.09;100698.81;4860923;28;97156;-70
2021/07/15 03:29:32;;;;;;;1999.90;999.90;;;;;;;16.10;nan;100702.41;4830214;29;97507;-70
2021/07/15 03:32:01;;;;;;;1999.90;999.90;;;;;;;16.09;48.55;100701.53;4858338;28;99794;-71
2021/07/15 03:34:29;;;;;;;1999.90;999.90;;;;;;;16.10;48.55;100699.75;4830353;29;98858;-70
2021/07/15 03:36:58;;;;;;;1999.90;999.90;;;;;;;16.07;48.45;100703.31;4814016;29;97002;-71
2021/07/15 03:39:27;;;;;;;1999.90;999.90;;;;;;;16.04;48.59;100703.34;4829800;29;97869;-70
2021/07/15 03:41:55;;;;;;;1999.90;999.90;;;;;;;16.02;48.73;100707.81;4829582;29;98669;-70
2021/07/15 03:44:24;;;;;;;1999.90;999.90;;;;;;;16.00;49.10;100714.03;4859076;28;100715;-70
2021/07/15 03:46:54;;;;;;;1999.90;999.90;;;;;;;15.99;49.07;100715.84;4829998;29;98328;-70
2021/07/15 03:49:24;;;;;;;1999.90;999.90;;;;;;;16.00;49.48;100727.44;4829425;29;96948;-71
2021/07/15 03:51:52;;;;;;;1999.90;999.90;;;;;;;16.00;49.44;100720.34;4829170;29;99803;-71
2021/07/15 03:54:23;;;;;;;1999.90;999.90;;;;;;;16.00;49.62;100716.72;4830309;29;98795;-71
2021/07/15 03:56:53;;;;;;;1999.90;999.90;;;;;;;15.99;49.71;100726.56;4828491;29;97064;-70
2021/07/15 03:59:21;;;;;;;1999.90;999.90;;;;;;;16.00;49.89;100724.75;4861078;28;97325;-71
2021/07/15 04:01:58;;;;;;;1999.90;999.90;;;;;;;16.01;49.95;100727.47;4840275;28;97702;-71
2021/07/15 04:04:29;;;;;;;1999.90;999.90;;;;;;;15.99;49.99;100715.84;4825976;28;97314;-70
2021/07/15 04:06:58;;;;;;;1999.90;999.90;;;;;;;15.97;49.65;100706.91;4823279;29;97734;-70
2021/07/15 04:09:27;;;;;;;1999.90;999.90;;;;;;;15.94;49.88;100704.19;4827662;29;97061;-70
2021/07/15 04:11:57;;;;;;;1999.90;999.90;;;;;;;15.93;49.63;100698.84;4829203;29;97970;-71
2021/07/15 04:14:34;;;;;;;1999.90;999.90;;;;;;;15.88;49.78;100698.88;4827313;29;99507;-71
2021/07/15 04:17:05;;;;;;;1999.90;999.90;;;;;;;15.88;49.42;100696.19;4828579;29;97296;-71
2021/07/15 04:19:34;;;;;;;1999.90;999.90;;;;;;;15.87;49.54;100689.00;4828874;29;97464;-71
2021/07/15 04:22:04;;;;;;;1999.90;999.90;;;;;;;15.85;49.76;100696.16;4828371;29;97776;-71
2021/07/15 04:24:32;;;;;;;1999.90;999.90;;;;;;;15.84;49.87;100689.03;4843188;29;99861;-70
2021/07/15 04:27:04;;;;;;;1999.90;999.90;;;;;;;15.80;49.57;100684.56;4830530;29;97009;-71
2021/07/15 04:29:32;;;;;;;1999.90;999.90;;;;;;;15.82;49.83;100689.91;4828639;29;98920;-71
2021/07/15 04:32:05;;;;;;;1999.90;999.90;;;;;;;15.83;49.67;100700.63;4828850;29;98970;-71
2021/07/15 04:34:35;;;;;;;1999.90;999.90;;;;;;;15.81;50.13;100697.06;4826131;29;98040;-71
2021/07/15 04:37:03;;;;;;;1999.90;999.90;;;;;;;15.81;49.56;100698.88;4830077;29;97714;-71
2021/07/15 04:39:31;;;;;;;1999.90;999.90;;;;;;;15.79;49.49;100693.53;4852746;28;97461;-71
2021/07/15 04:42:03;;;;;;;1999.90;999.90;;;;;;;15.79;49.29;100695.31;4826606;29;97928;-71
2021/07/15 04:44:32;;;;;;;1999.90;999.90;;;;;;;15.79;49.53;100706.03;4826384;29;98858;-71
2021/07/15 04:47:00;;;;;;;1999.90;999.90;;;;;;;15.80;49.60;100719.44;4825444;29;98044;-71
2021/07/15 04:49:29;;;;;;;1999.90;999.90;;;;;;;15.84;49.90;100725.69;4829317;29;97698;-70
2021/07/15 04:51:57;;;;;;;1999.90;999.90;;;;;;;15.83;49.27;100714.06;4828060;29;99805;-70
2021/07/15 04:54:26;;;;;;;1999.90;999.90;;;;;;;15.84;49.48;100725.69;4827361;29;99033;-71
2021/07/15 04:56:53;;;;;;;1999.90;999.90;;;;;;;15.84;49.55;100731.97;4828015;29;97718;-70
2021/07/15 04:59:23;;;;;;;1999.90;999.90;;;;;;;15.85;49.65;100739.09;4824133;29;97089;-71
2021/07/15 05:01:51;;;;;;;1999.90;999.90;;;;;;;15.85;49.33;100727.47;4828906;29;98164;-71
2021/07/15 05:04:20;;;;;;;1999.90;999.90;;;;;;;15.85;49.40;100728.38;4826887;29;97898;-71
2021/07/15 05:06:48;;;;;;;1999.90;999.90;;;;;;;15.86;49.53;100724.81;4829061;29;97056;-71
2021/07/15 05:09:16;;;;;;;1999.90;999.90;;;;;;;15.86;49.58;100738.22;4827473;29;98361;-72
2021/07/15 05:11:44;;;;;;;1999.90;999.90;;;;;;;15.86;49.78;100729.28;4828783;29;97773;-71
2021/07/15 05:14:11;;;;;;;1999.90;999.90;;;;;;;15.85;49.47;100722.09;4829958;29;98691;-71
2021/07/15 05:16:40;;;;;;;1999.90;999.90;;;;;;;15.83;49.38;100711.38;4827076;29;96860;-72
2021/07/15 05:19:08;;;;;;;1999.90;999.90;;;;;;;15.79;49.70;100725.72;4829421;29;97199;-72
2021/07/15 05:21:36;;;;;;;1999.90;999.90;;;;;;;15.41;50.42;100719.44;4830164;29;97882;-71
2021/07/15 05:24:04;;;;;;;1999.90;999.90;;;;;;;15.65;50.16;100723.94;4842121;29;100154;-72
2021/07/15 05:26:32;;;;;;;1999.90;999.90;;;;;;;15.71;50.30;100722.13;4826998;29;97917;-72
2021/07/15 05:29:00;;;;;;;1999.90;999.90;;;;;;;15.76;50.10;100720.34;4828397;29;97523;-71
2021/07/15 05:31:27;;;;;;;1999.90;999.90;;;;;;;15.82;49.79;100711.38;4842916;29;99440;-71
2021/07/15 05:33:57;;;;;;;1999.90;999.90;;;;;;;15.89;49.65;100710.47;4828489;29;97576;-70
2021/07/15 05:36:24;;;;;;;1999.90;999.90;;;;;;;15.92;49.61;100707.81;4827161;29;97942;-71
2021/07/15 05:38:52;;;;;;;1999.90;999.90;;;;;;;15.92;49.14;100711.34;4828376;29;96980;-72
2021/07/15 05:41:20;;;;;;;1999.90;999.90;;;;;;;15.95;49.20;100710.47;4826330;29;99336;-72
2021/07/15 05:43:48;;;;;;;1999.90;999.90;;;;;;;15.96;49.29;100710.47;4828990;29;97238;-72
2021/07/15 05:46:16;;;;;;;1999.90;999.90;;;;;;;16.01;49.37;100714.06;4827832;29;98133;-72
2021/07/15 05:48:44;;;;;;;1999.90;999.90;;;;;;;16.04;49.16;100706.00;4828058;29;96967;-72
2021/07/15 05:51:13;;;;;;;1999.90;999.90;;;;;;;16.06;49.31;100708.69;4827376;29;96910;-72
2021/07/15 05:53:40;;;;;;;1999.90;999.90;;;;;;;16.06;49.44;100717.66;4829449;29;97636;-72
2021/07/15 05:56:08;;;;;;;1999.90;999.90;;;;;;;16.10;49.70;100723.91;4828173;29;97247;-71
2021/07/15 05:58:36;;;;;;;1999.90;999.90;;;;;;;16.17;49.43;100732.81;4827047;29;98235;-71
2021/07/15 06:01:04;;;;;;;1999.90;999.90;;;;;;;16.26;49.24;100732.78;4856861;28;100754;-71
2021/07/15 06:03:32;;;;;;;1999.90;999.90;;;;;;;16.30;49.15;100737.25;4830110;29;99182;-71
2021/07/15 06:06:00;;;;;;;1999.90;999.90;;;;;;;16.36;49.44;100738.13;4828182;29;97280;-71
2021/07/15 06:08:29;;;;;;;1999.90;999.90;;;;;;;16.39;49.21;100737.22;4841674;29;97893;-71
2021/07/15 06:10:57;;;;;;;1999.90;999.90;;;;;;;16.42;49.08;100731.84;4828805;29;97952;-71
2021/07/15 06:13:25;;;;;;;1999.90;999.90;;;;;;;16.44;49.13;100740.78;4827771;29;98377;-71
2021/07/15 06:15:52;;;;;;;1999.90;999.90;;;;;;;16.43;49.19;100739.91;4829102;29;97663;-71
2021/07/15 06:18:21;;;;;;;1999.90;999.90;;;;;;;16.51;49.58;100745.22;4861842;28;97254;-72
2021/07/15 06:20:48;;;;;;;1999.90;999.90;;;;;;;16.55;49.39;100749.69;4839637;28;97070;-72
2021/07/15 06:23:16;;;;;;;1999.90;999.90;;;;;;;16.61;49.22;100741.63;4830709;29;98890;-71
2021/07/15 06:25:45;;;;;;;1999.90;999.90;;;;;;;16.67;49.37;100750.53;4828697;29;96946;-72
2021/07/15 06:28:13;;;;;;;1999.90;999.90;;;;;;;16.74;48.99;100749.66;4832220;29;97073;-71
2021/07/15 06:30:41;;;;;;;1999.90;999.90;;;;;;;16.79;48.99;100749.63;4832062;29;98185;-72
2021/07/15 06:33:08;;;;;;;1999.90;999.90;;;;;;;16.85;49.23;100757.69;4861097;28;99374;-72
2021/07/15 06:35:40;;;;;;;1999.90;999.90;;;;;;;16.89;49.03;100763.00;4829115;29;97471;-71
2021/07/15 06:38:09;;;;;;;1999.90;999.90;;;;;;;16.96;49.02;100769.28;4832361;29;97062;-71
2021/07/15 06:40:37;;;;;;;1999.90;999.90;;;;;;;17.01;49.01;100768.34;4825480;29;97740;-71
2021/07/15 06:43:06;;;;;;;1999.90;999.90;;;;;;;17.07;48.94;100762.03;4829969;29;97514;-71
2021/07/15 06:45:34;;;;;;;1999.90;999.90;;;;;;;17.13;48.79;100778.13;4829500;29;97433;-72
2021/07/15 06:48:02;;;;;;;1999.90;999.90;;;;;;;17.16;48.16;100775.44;4830268;29;96930;-72
2021/07/15 06:50:30;;;;;;;1999.90;999.90;;;;;;;17.21;47.78;100776.28;4830765;29;98752;-71
2021/07/15 06:52:57;;;;;;;1999.90;999.90;;;;;;;17.25;47.40;100783.44;4830838;29;99178;-70
2021/07/15 06:55:25;;;;;;;1999.90;999.90;;;;;;;17.30;47.13;100786.09;4828669;29;97471;-71
2021/07/15 06:57:53;;;;;;;1999.90;999.90;;;;;;;17.33;46.60;100799.53;4831097;29;97514;-72
2021/07/15 07:00:23;;;;;;;1999.90;999.90;;;;;;;17.35;46.50;100798.59;4860152;28;100668;-71
2021/07/15 07:02:50;;;;;;;1999.90;999.90;;;;;;;17.37;46.56;100799.50;4829707;29;99567;-72
2021/07/15 07:05:18;;;;;;;1999.90;999.90;;;;;;;17.42;46.53;100808.44;4828839;29;97389;-72
2021/07/15 07:07:47;;;;;;;1999.90;999.90;;;;;;;17.42;46.41;100805.75;4830651;29;96850;-72
2021/07/15 07:10:16;;;;;;;1999.90;999.90;;;;;;;17.45;46.54;100808.47;4829413;29;98081;-72
2021/07/15 07:12:44;;;;;;;1999.90;999.90;;;;;;;17.50;46.77;100801.25;4830999;29;100418;-71
2021/07/15 07:15:14;;;;;;;1999.90;999.90;;;;;;;17.53;46.38;100805.72;4830630;29;97471;-72
2021/07/15 07:17:44;;;;;;;1999.90;999.90;;;;;;;17.55;46.26;100803.88;4831797;29;97980;-71
2021/07/15 07:20:14;;;;;;;1999.90;999.90;;;;;;;17.57;46.31;100802.97;4823199;29;98794;-72
2021/07/15 07:22:42;;;;;;;1999.90;999.90;;;;;;;17.58;46.36;100810.13;4829963;29;98828;-71
2021/07/15 07:25:12;;;;;;;1999.90;999.90;;;;;;;17.60;46.45;100805.63;4828927;29;97878;-71
2021/07/15 07:27:40;;;;;;;1999.90;999.90;;;;;;;17.62;45.99;100806.53;4830444;29;97561;-71
2021/07/15 07:30:10;;;;;;;1999.90;999.90;;;;;;;17.62;45.90;100805.66;4830557;29;98149;-71
2021/07/15 07:32:38;;;;;;;1999.90;999.90;;;;;;;17.63;45.87;100797.56;4860384;28;98951;-72
2021/07/15 07:35:08;;;;;;;1999.90;999.90;;;;;;;17.67;45.78;100793.94;4829504;29;97454;-71
2021/07/15 07:37:36;;;;;;;1999.90;999.90;;;;;;;17.69;45.67;100791.25;4830920;29;97272;-72
2021/07/15 07:40:08;;;;;;;1999.90;999.90;;;;;;;17.72;45.77;100785.81;4828437;29;101029;-71
2021/07/15 07:42:35;;;;;;;1999.90;999.90;;;;;;;17.77;46.16;100789.34;4829259;29;98963;-72
2021/07/15 07:45:04;;;;;;;1999.90;999.90;;;;;;;17.81;46.00;100793.81;4829368;29;96911;-72
2021/07/15 07:47:32;;;;;;;1999.90;999.90;;;;;;;17.85;45.84;100787.50;4831475;29;97197;-72
2021/07/15 07:50:00;;;;;;;1999.90;999.90;;;;;;;17.89;45.81;100786.59;4830767;29;97972;-72
2021/07/15 07:52:30;;;;;;;1999.90;999.90;;;;;;;17.90;45.75;100778.47;4828272;29;97752;-72
2021/07/15 07:54:57;;;;;;;1999.90;999.90;;;;;;;17.95;45.96;100790.09;4830173;29;97967;-71
2021/07/15 07:57:25;;;;;;;1999.90;999.90;;;;;;;18.00;45.76;100787.38;4829900;29;96870;-72
2021/07/15 07:59:56;;;;;;;1999.90;999.90;;;;;;;18.02;45.67;100783.75;4829594;29;97979;-72
2021/07/15 08:02:24;;;;;;;1999.90;999.90;;;;;;;18.06;45.49;100789.16;4830005;29;97953;-72
2021/07/15 08:04:52;;;;;;;1999.90;999.90;;;;;;;18.10;45.11;100793.59;4822117;29;98010;-71
2021/07/15 08:07:20;;;;;;;1999.90;999.90;;;;;;;18.11;45.07;100790.00;4824840;29;97589;-72
2021/07/15 08:09:49;;;;;;;1999.90;999.90;;;;;;;18.13;44.97;100793.56;4828296;29;98174;-72
2021/07/15 08:12:17;;;;;;;1999.90;999.90;;;;;;;18.13;44.98;100798.97;4831753;29;97652;-72
2021/07/15 08:14:45;;;;;;;1999.90;999.90;;;;;;;18.16;44.80;100804.31;4844909;29;97149;-71
2021/07/15 08:17:14;;;;;;;1999.90;999.90;;;;;;;18.18;44.34;100810.56;4844737;29;97441;-72
2021/07/15 08:19:42;;;;;;;1999.90;999.90;;;;;;;18.17;44.44;100798.91;4815125;29;98083;-72
2021/07/15 08:22:10;;;;;;;1999.90;999.90;;;;;;;18.19;44.22;100802.47;4831167;29;98836;-72
2021/07/15 08:24:38;;;;;;;1999.90;999.90;;;;;;;18.21;44.24;100797.06;4830313;29;97821;-72
2021/07/15 08:27:07;;;;;;;1999.90;999.90;;;;;;;18.23;44.48;100789.88;4829697;29;96884;-72
2021/07/15 08:29:35;;;;;;;1999.90;999.90;;;;;;;18.25;44.52;100794.34;4829114;29;97870;-72
2021/07/15 08:32:05;;;;;;;1999.90;999.90;;;;;;;18.30;44.15;100799.66;4830066;29;97969;-71
2021/07/15 08:34:33;;;;;;;1999.90;999.90;;;;;;;18.32;44.16;100803.25;4843831;29;97407;-74
2021/07/15 08:37:02;;;;;;;1999.90;999.90;;;;;;;18.34;44.36;100801.44;4829373;29;97522;-72
2021/07/15 08:39:30;;;;;;;1999.90;999.90;;;;;;;18.38;44.75;100811.28;4823415;29;96986;-72
2021/07/15 08:41:59;;;;;;;1999.90;999.90;;;;;;;18.42;44.53;100818.41;4826478;29;97583;-72
2021/07/15 08:44:28;;;;;;;1999.90;999.90;;;;;;;18.44;44.72;100816.59;4827900;29;98055;-72
2021/07/15 08:46:58;;;;;;;1999.90;999.90;;;;;;;18.47;44.21;100811.16;4829142;29;97170;-72
2021/07/15 08:49:26;;;;;;;1999.90;999.90;;;;;;;18.48;44.59;100812.94;4857682;28;99203;-72
2021/07/15 08:51:55;;;;;;;1999.90;999.90;;;;;;;18.28;45.05;100804.16;4860875;28;97784;-72
2021/07/15 08:54:32;;;;;;;1999.90;999.90;;;;;;;18.39;44.68;100796.88;4828999;29;96854;-72
2021/07/15 08:56:59;;;;;;;1999.90;999.90;;;;;;;18.44;44.52;100792.34;4828545;29;97108;-72
2021/07/15 08:59:29;;;;;;;1999.90;999.90;;;;;;;18.46;44.40;100794.09;4829117;29;98663;-71
2021/07/15 09:01:57;;;;;;;1999.90;999.90;;;;;;;18.49;44.28;100799.47;4829610;29;97806;-71
2021/07/15 09:04:25;;;;;;;1999.90;999.90;;;;;;;18.53;44.23;100797.63;4829354;29;97381;-72
2021/07/15 09:06:53;;;;;;;1999.90;999.90;;;;;;;18.55;44.49;100801.22;4826437;29;97125;-72
2021/07/15 09:09:21;;;;;;;1999.90;999.90;;;;;;;18.57;43.99;100796.69;4829460;29;98234;-71
2021/07/15 09:11:49;;;;;;;1999.90;999.90;;;;;;;18.59;44.06;100792.16;4829923;29;97876;-73
2021/07/15 09:14:19;;;;;;;1999.90;999.90;;;;;;;18.60;44.02;100780.47;4829358;29;97207;-71
2021/07/15 09:16:52;;;;;;;1999.90;999.90;;;;;;;18.63;44.13;100784.03;4828435;29;97284;-72
2021/07/15 09:19:22;;;;;;;1999.90;999.90;;;;;;;18.69;44.19;100783.09;4829114;29;97487;-72
2021/07/15 09:21:51;;;;;;;1999.90;999.90;;;;;;;18.71;44.39;100773.19;4829225;29;97839;-72
2021/07/15 09:24:38;;;;;;;1999.90;999.90;;;;;;;18.72;44.16;100775.88;4826831;29;98054;-72
2021/07/15 09:27:12;;;;;;;1999.90;999.90;;;;;;;18.75;43.99;100777.66;4818884;29;97216;-72
2021/07/15 09:29:40;;;;;;;1999.90;999.90;;;;;;;18.78;43.95;100785.69;4858939;28;97933;-73
2021/07/15 09:32:14;;;;;;;1999.90;999.90;;;;;;;18.80;43.70;100778.47;4811226;29;97310;-72
2021/07/15 09:34:42;;;;;;;1999.90;999.90;;;;;;;18.78;44.01;100786.59;4842492;29;97051;-72
2021/07/15 09:37:12;;;;;;;1999.90;999.90;;;;;;;18.85;44.02;100787.38;4828078;29;97340;-71
2021/07/15 09:39:44;;;;;;;1999.90;999.90;;;;;;;18.87;43.29;100778.38;4828362;29;96883;-72
2021/07/15 09:42:15;;;;;;;1999.90;999.90;;;;;;;18.87;43.19;100783.78;4843174;29;98966;-72
2021/07/15 09:44:46;;;;;;;1999.90;999.90;;;;;;;18.82;43.57;100799.09;4825954;29;96998;-72
2021/07/15 09:47:33;;;;;;;1999.90;999.90;;;;;;;18.87;43.72;100801.75;4858802;28;97201;-72
2021/07/15 09:50:02;;;;;;;1999.90;999.90;;;;;;;18.92;44.06;100805.25;4827980;29;97675;-72
2021/07/15 09:52:29;;;;;;;1999.90;999.90;;;;;;;18.99;43.68;100806.97;4846406;29;99737;-72
2021/07/15 09:55:20;;;;;;;1999.90;999.90;;;;;;;19.04;43.87;100806.00;4830099;29;97160;-72
2021/07/15 09:57:49;;;;;;;1999.90;999.90;;;;;;;19.10;43.59;100805.03;4831212;29;97343;-72
2021/07/15 10:00:32;;;;;;;1999.90;999.90;;;;;;;19.14;43.25;100809.47;4830972;29;99100;-72
2021/07/15 10:03:03;;;;;;;1999.90;999.90;;;;;;;19.17;43.38;100806.72;4861583;28;97621;-72
2021/07/15 10:05:31;;;;;;;1999.90;999.90;;;;;;;19.21;43.35;100811.16;4861886;28;97101;-73
2021/07/15 10:08:03;;;;;;;1999.90;999.90;;;;;;;19.21;43.25;100808.47;4829918;29;97388;-72
2021/07/15 10:10:31;;;;;;;1999.90;999.90;;;;;;;19.22;43.38;100810.28;4830302;29;99862;-72
2021/07/15 10:13:12;;;;;;;1999.90;999.90;;;;;;;19.28;43.02;100817.38;4830847;29;97607;-72
2021/07/15 10:15:40;;;;;;;1999.90;999.90;;;;;;;19.28;42.46;100814.69;4830576;29;96939;-72
2021/07/15 10:18:10;;;;;;;1999.90;999.90;;;;;;;19.30;42.62;100813.72;4830832;29;97149;-72
2021/07/15 10:20:38;;;;;;;1999.90;999.90;;;;;;;19.36;42.74;100821.78;4832057;29;97447;-72
2021/07/15 10:23:06;;;;;;;1999.90;999.90;;;;;;;19.43;43.21;100815.38;4830551;29;99830;-72
2021/07/15 10:25:35;;;;;;;1999.90;999.90;;;;;;;19.51;43.02;100808.06;4829767;29;97469;-72
2021/07/15 10:28:03;;;;;;;1999.90;999.90;;;;;;;19.58;42.79;100809.75;4845015;29;97484;-71
2021/07/15 10:30:31;;;;;;;1999.90;999.90;;;;;;;19.62;42.48;100808.81;4830058;29;97997;-72
2021/07/15 10:32:59;;;;;;;1999.90;999.90;;;;;;;19.65;41.80;100813.25;4814827;29;99167;-72
2021/07/15 10:35:28;;;;;;;1999.90;999.90;;;;;;;19.65;41.90;100816.84;4830487;29;98998;-72
2021/07/15 10:37:57;;;;;;;1999.90;999.90;;;;;;;19.70;41.30;100809.56;4831997;29;97077;-72
2021/07/15 10:40:25;;;;;;;1999.90;999.90;;;;;;;19.74;41.93;100816.69;4855976;28;97956;-72
2021/07/15 10:42:53;;;;;;;1999.90;999.90;;;;;;;19.81;41.65;100818.38;4829602;29;97655;-72
2021/07/15 10:45:21;;;;;;;1999.90;999.90;;;;;;;19.88;41.67;100822.75;4858601;28;97030;-72
2021/07/15 10:47:54;;;;;;;1999.90;999.90;;;;;;;19.93;41.45;100818.22;4829065;29;97909;-72
2021/07/15 10:50:22;;;;;;;1999.90;999.90;;;;;;;19.98;41.32;100818.13;4829569;29;99322;-72
2021/07/15 10:52:51;;;;;;;1999.90;999.90;;;;;;;20.01;41.53;100817.19;4831851;29;97879;-72
2021/07/15 10:55:19;;;;;;;1999.90;999.90;;;;;;;20.08;41.35;100813.47;4843159;29;97302;-72
2021/07/15 10:57:50;;;;;;;1999.90;999.90;;;;;;;20.13;40.98;100815.19;4860782;28;97774;-72